Florence, Wisconsin
Current Conditions -  °F | °C
As of 9:54 AM on Tuesday 21 Oct 2014 (Local Time) from KIMT Reporting Station
Overcast Overcast  
Wind Chill:   Ceiling: 2000
Heat Index:   Visibility: 10mi
Dew Point:   Wind: 10mph
Humidity: 70%   Direction: 10°N
Pressure: 30.24"   Gusts: NA
Location:  45.92°N, 88.25°W
Report Text: KIMT 211454Z AUTO 01009KT 10SM OVC020 05/00 A3024 RMK AO2 SLP251 T00500000 51022
Loading
Personal Weather Stations






























Interactive Weather Map
Tropical Storm Tracking
New forecast layout! Learn more

10-Day Weather Forecast

Advertisements
Track Severe Weather on mobile